Time;durP1;ratioP1;P1;durP2;ratioP2;P2;SDS_P1;SDS_P2;PMS_P1;PMS_P2;Temp;Humidity;BMP_temperature;BMP_pressure;BME280_temperature;BME280_humidity;BME280_pressure;Samples;Min_cycle;Max_cycle;Signal;HPM_P1;HPM_P2
2023/07/01 00:00:07;;;;;;;4.68;3.55;;;;;;;19.71;70.29;100671.66;4975908;28;20118;-90
2023/07/01 00:02:33;;;;;;;4.13;3.30;;;;;;;19.76;70.28;100672.94;4992337;28;20035;-90
2023/07/01 00:04:59;;;;;;;4.50;3.13;;;;;;;19.72;70.18;100671.53;4959718;28;20034;-89
2023/07/01 00:07:24;;;;;;;4.72;3.30;;;;;;;19.71;69.96;100674.28;4975388;28;20042;-90
2023/07/01 00:09:50;;;;;;;3.88;2.90;;;;;;;19.63;70.31;100669.69;4975618;28;20060;-89
2023/07/01 00:12:15;;;;;;;5.18;3.42;;;;;;;19.56;70.65;100671.19;5007734;28;20435;-89
2023/07/01 00:14:41;;;;;;;4.93;3.15;;;;;;;19.49;71.07;100664.78;4991788;28;20031;-89
2023/07/01 00:17:09;;;;;;;4.18;3.10;;;;;;;19.49;70.75;100675.28;4975329;28;20026;-89
2023/07/01 00:19:35;;;;;;;4.10;3.08;;;;;;;19.42;70.84;100667.09;4975810;28;20074;-89
2023/07/01 00:22:02;;;;;;;4.28;3.42;;;;;;;19.44;71.12;100677.47;4991267;28;20030;-88
2023/07/01 00:24:28;;;;;;;3.85;2.90;;;;;;;19.15;71.67;100646.66;4991628;28;20084;-89
2023/07/01 00:26:53;;;;;;;4.00;3.20;;;;;;;19.35;71.56;100673.00;4991210;28;20027;-90
2023/07/01 00:29:18;;;;;;;4.80;3.60;;;;;;;19.33;71.63;100667.03;4991738;28;20038;-89
2023/07/01 00:31:44;;;;;;;4.15;3.42;;;;;;;19.20;72.15;100664.63;4991313;28;20076;-89
2023/07/01 00:34:09;;;;;;;6.65;3.17;;;;;;;19.25;71.83;100672.09;4975196;28;20073;-90
2023/07/01 00:36:35;;;;;;;4.68;3.15;;;;;;;19.19;71.56;100662.97;4974980;28;20026;-89
2023/07/01 00:39:03;;;;;;;4.60;3.25;;;;;;;19.13;72.18;100666.09;4991387;28;20476;-90
2023/07/01 00:41:28;;;;;;;3.97;3.20;;;;;;;19.02;72.00;100656.53;4990959;28;20030;-90
2023/07/01 00:43:54;;;;;;;3.65;2.95;;;;;;;18.92;72.45;100660.88;4991512;28;20042;-91
2023/07/01 00:46:21;;;;;;;4.93;2.95;;;;;;;18.99;72.18;100664.66;4974984;28;20417;-90
2023/07/01 00:48:47;;;;;;;4.38;3.42;;;;;;;18.89;72.00;100650.66;4991238;28;20506;-89
2023/07/01 00:51:12;;;;;;;4.30;3.40;;;;;;;18.90;71.69;100668.03;4991340;28;20038;-90
2023/07/01 00:53:39;;;;;;;4.00;3.13;;;;;;;18.78;71.93;100661.16;4991059;28;20030;-90
2023/07/01 00:56:05;;;;;;;3.70;2.78;;;;;;;18.76;71.67;100670.94;4991074;28;20062;-90
2023/07/01 00:58:30;;;;;;;4.50;3.42;;;;;;;18.53;71.72;100650.06;4990612;28;20484;-89
2023/07/01 01:00:56;;;;;;;3.97;2.88;;;;;;;18.54;72.20;100664.81;4990756;28;20034;-90
2023/07/01 01:03:46;;;;;;;3.70;2.88;;;;;;;18.63;71.85;100678.97;4991028;28;20109;-89
2023/07/01 01:06:18;;;;;;;4.53;3.08;;;;;;;18.45;72.50;100662.94;5006983;28;20050;-89
2023/07/01 01:08:57;;;;;;;5.15;3.10;;;;;;;18.48;72.29;100662.69;4990875;28;20027;-90
2023/07/01 01:11:24;;;;;;;4.45;3.15;;;;;;;18.52;72.29;100664.13;5006802;28;20435;-89
2023/07/01 01:13:49;;;;;;;5.88;3.42;;;;;;;18.62;72.42;100658.97;4974503;28;20041;-91
2023/07/01 01:16:15;;;;;;;6.22;3.13;;;;;;;18.62;72.57;100669.44;4990636;28;20038;-91
2023/07/01 01:18:42;;;;;;;7.13;3.70;;;;;;;18.61;72.53;100652.06;5006908;28;20030;-89
2023/07/01 01:21:07;;;;;;;4.68;3.33;;;;;;;18.71;72.16;100646.94;4974575;28;20036;-90
2023/07/01 01:23:36;;;;;;;3.95;3.30;;;;;;;18.66;72.28;100641.22;4990573;28;20034;-89
2023/07/01 01:26:05;;;;;;;4.15;3.55;;;;;;;18.58;72.29;100637.44;4974332;28;20042;-90
2023/07/01 01:28:31;;;;;;;4.75;3.70;;;;;;;18.57;72.56;100642.78;5006483;28;20053;-90
2023/07/01 01:30:58;;;;;;;7.95;3.25;;;;;;;18.45;73.02;100647.22;4974400;28;20030;-90
2023/07/01 01:33:24;;;;;;;3.83;3.33;;;;;;;18.42;73.04;100641.44;4990536;28;20034;-88
2023/07/01 01:35:50;;;;;;;3.67;2.97;;;;;;;18.44;72.66;100642.97;4990336;28;20030;-89
2023/07/01 01:38:20;;;;;;;5.60;3.42;;;;;;;18.49;73.05;100643.44;5006282;28;20058;-90
2023/07/01 01:40:52;;;;;;;5.03;3.25;;;;;;;18.55;73.11;100658.63;4990338;28;20330;-90
2023/07/01 01:43:29;;;;;;;4.03;3.33;;;;;;;18.49;73.44;100646.06;4991660;28;20026;-90
2023/07/01 01:45:55;;;;;;;4.25;3.17;;;;;;;18.43;72.82;100646.53;4990291;28;20035;-90
2023/07/01 01:48:20;;;;;;;4.75;3.75;;;;;;;18.54;72.78;100656.13;4990339;28;20550;-88
2023/07/01 01:50:49;;;;;;;3.90;3.13;;;;;;;18.56;72.46;100652.44;4990432;28;20037;-90
2023/07/01 01:53:14;;;;;;;5.32;3.55;;;;;;;18.53;72.62;100650.06;4973646;28;20031;-91
2023/07/01 01:55:39;;;;;;;3.95;3.20;;;;;;;18.44;72.23;100645.56;4990370;28;20499;-88
2023/07/01 01:58:05;;;;;;;4.20;3.17;;;;;;;18.48;71.75;100646.97;4973959;28;20034;-89
2023/07/01 02:00:34;;;;;;;3.83;3.30;;;;;;;18.49;71.69;100648.66;5006694;28;20061;-89
2023/07/01 02:03:00;;;;;;;4.28;3.08;;;;;;;18.33;71.65;100622.88;4990443;28;20027;-88
2023/07/01 02:05:26;;;;;;;3.35;2.30;;;;;;;18.23;71.66;100615.91;4990094;28;20440;-89
2023/07/01 02:07:51;;;;;;;3.88;2.90;;;;;;;18.42;71.67;100657.97;4973468;28;20046;-90
2023/07/01 02:10:19;;;;;;;4.53;2.78;;;;;;;18.39;72.06;100653.00;4990088;28;20026;-88
2023/07/01 02:12:44;;;;;;;3.58;2.75;;;;;;;18.36;71.79;100640.13;5008209;28;20511;-89
2023/07/01 02:15:10;;;;;;;4.38;2.70;;;;;;;18.41;71.81;100647.63;4993677;28;20030;-90
2023/07/01 02:17:35;;;;;;;3.33;2.70;;;;;;;18.42;72.02;100646.66;4993678;28;20484;-91
2023/07/01 02:20:00;;;;;;;4.28;3.30;;;;;;;18.42;71.93;100651.91;4994228;28;20046;-89
2023/07/01 02:22:26;;;;;;;3.85;2.92;;;;;;;18.27;72.10;100636.47;5009927;28;20085;-88
2023/07/01 02:24:51;;;;;;;4.07;2.97;;;;;;;18.35;71.97;100641.09;4993682;28;20049;-89
2023/07/01 02:27:19;;;;;;;4.38;2.92;;;;;;;18.38;71.47;100646.06;4993453;28;20088;-89
2023/07/01 02:29:44;;;;;;;9.32;3.08;;;;;;;18.33;71.83;100656.09;5009595;28;20041;-89
2023/07/01 02:32:10;;;;;;;6.15;3.10;;;;;;;18.22;72.56;100654.34;5010085;28;20038;-91
2023/07/01 02:34:35;;;;;;;4.50;3.13;;;;;;;18.23;72.06;100653.38;4977375;28;20041;-90
2023/07/01 02:37:00;;;;;;;5.55;3.20;;;;;;;18.15;72.31;100645.31;4976982;28;20030;-89
2023/07/01 02:39:26;;;;;;;5.05;3.13;;;;;;;18.23;72.45;100652.56;4994785;28;20038;-91
2023/07/01 02:41:51;;;;;;;5.03;3.40;;;;;;;18.17;72.53;100648.63;4977269;28;20040;-89
2023/07/01 02:44:17;;;;;;;4.63;3.28;;;;;;;18.15;72.82;100654.94;4993389;28;20034;-89
2023/07/01 02:46:42;;;;;;;3.72;3.05;;;;;;;18.10;72.69;100644.88;4977127;28;20084;-91
2023/07/01 02:49:08;;;;;;;4.30;3.33;;;;;;;18.04;73.25;100651.41;5009314;28;20531;-89
2023/07/01 02:51:33;;;;;;;4.63;3.65;;;;;;;18.09;73.30;100650.19;4976761;28;20495;-89
2023/07/01 02:53:59;;;;;;;8.40;3.20;;;;;;;18.06;74.05;100656.50;4976947;28;20408;-89
2023/07/01 02:56:24;;;;;;;4.22;3.25;;;;;;;17.97;74.07;100647.59;5009591;28;20049;-90
2023/07/01 02:58:50;;;;;;;4.97;3.58;;;;;;;17.86;74.14;100639.78;5009396;28;20034;-89
2023/07/01 03:01:15;;;;;;;4.60;3.47;;;;;;;17.93;74.34;100654.03;4993361;28;20392;-90
2023/07/01 03:03:41;;;;;;;4.65;3.70;;;;;;;17.90;75.07;100656.91;4976738;28;20037;-88
2023/07/01 03:06:06;;;;;;;4.10;3.42;;;;;;;17.97;74.43;100657.25;4976264;28;20042;-89
2023/07/01 03:08:32;;;;;;;6.28;3.83;;;;;;;18.03;74.62;100660.22;4993025;28;20034;-88
2023/07/01 03:10:57;;;;;;;5.35;3.60;;;;;;;18.02;73.85;100663.78;4992853;28;20037;-89
2023/07/01 03:13:23;;;;;;;4.35;3.45;;;;;;;17.97;74.31;100663.31;4994005;28;20031;-89
2023/07/01 03:15:49;;;;;;;4.40;3.70;;;;;;;17.94;74.67;100668.78;4976624;28;20030;-90
2023/07/01 03:18:14;;;;;;;4.85;3.58;;;;;;;17.95;74.52;100670.47;4993961;28;20488;-88
2023/07/01 03:20:40;;;;;;;6.00;4.10;;;;;;;17.92;74.19;100675.94;4992192;28;20041;-90
2023/07/01 03:23:06;;;;;;;3.90;3.33;;;;;;;17.89;74.85;100670.94;5008833;28;20030;-89
2023/07/01 03:25:31;;;;;;;4.25;3.30;;;;;;;17.83;75.01;100676.66;4976431;28;20472;-90
2023/07/01 03:27:57;;;;;;;7.88;3.75;;;;;;;17.83;75.21;100670.59;4976262;28;20037;-88
2023/07/01 03:30:27;;;;;;;5.28;3.75;;;;;;;17.78;74.92;100673.56;4992267;28;20554;-89
2023/07/01 03:32:53;;;;;;;5.63;3.80;;;;;;;17.79;74.57;100659.53;4992556;28;20477;-89
2023/07/01 03:35:18;;;;;;;4.85;3.75;;;;;;;17.88;74.49;100687.59;5008707;28;20026;-89
2023/07/01 03:37:44;;;;;;;5.13;3.95;;;;;;;17.86;74.90;100684.25;5008515;28;20041;-89
2023/07/01 03:40:13;;;;;;;5.68;3.60;;;;;;;17.90;74.93;100690.94;4992444;28;21169;-89
2023/07/01 03:42:38;;;;;;;5.18;3.72;;;;;;;17.85;75.58;100689.63;4976445;28;20084;-89
2023/07/01 03:45:05;;;;;;;4.13;3.35;;;;;;;17.80;75.33;100661.22;4993560;28;20524;-89
2023/07/01 03:47:31;;;;;;;11.48;3.75;;;;;;;17.94;74.63;100679.25;4992108;28;20062;-89
2023/07/01 03:49:56;;;;;;;4.75;3.50;;;;;;;18.05;75.12;100675.81;4975884;28;20064;-89
2023/07/01 03:52:22;;;;;;;4.63;4.00;;;;;;;18.09;74.23;100676.38;4992047;28;20034;-89
2023/07/01 03:54:47;;;;;;;6.00;3.45;;;;;;;18.10;73.99;100676.28;4991732;28;20041;-89
2023/07/01 03:57:13;;;;;;;4.93;3.58;;;;;;;18.23;73.71;100673.50;4993202;28;20088;-90
2023/07/01 03:59:39;;;;;;;5.15;3.92;;;;;;;18.17;74.08;100673.97;4975929;28;20027;-89
2023/07/01 04:02:05;;;;;;;6.68;3.78;;;;;;;18.24;73.30;100681.22;4992059;28;20030;-91
2023/07/01 04:04:30;;;;;;;5.35;4.30;;;;;;;18.16;73.32;100669.72;4991665;28;20049;-89
2023/07/01 04:06:57;;;;;;;5.90;3.35;;;;;;;18.21;72.59;100673.63;4991676;28;20050;-88
2023/07/01 04:09:22;;;;;;;5.05;3.53;;;;;;;18.32;71.73;100697.16;4975809;28;20037;-90
2023/07/01 04:11:48;;;;;;;4.75;3.45;;;;;;;18.24;70.90;100683.03;4975796;28;20038;-89
2023/07/01 04:14:15;;;;;;;7.63;3.35;;;;;;;18.38;70.21;100702.84;4975565;28;20503;-89
2023/07/01 04:16:43;;;;;;;5.20;4.35;;;;;;;18.35;69.56;100703.94;4976015;28;20418;-90
2023/07/01 04:19:09;;;;;;;5.25;3.33;;;;;;;18.25;69.77;100688.13;4991287;28;20508;-89
2023/07/01 04:21:35;;;;;;;4.82;3.58;;;;;;;18.39;69.71;100710.63;4975369;28;20125;-88
2023/07/01 04:24:04;;;;;;;7.50;3.92;;;;;;;18.40;69.84;100707.03;4991698;28;20045;-89
2023/07/01 04:26:30;;;;;;;7.53;3.83;;;;;;;18.50;69.87;100707.13;4975756;28;20605;-89
2023/07/01 04:28:55;;;;;;;4.22;3.55;;;;;;;18.57;70.09;100713.50;4991593;28;20038;-91
2023/07/01 04:31:21;;;;;;;5.25;3.78;;;;;;;18.53;69.82;100701.63;4975254;28;20034;-90
2023/07/01 04:33:46;;;;;;;6.32;4.10;;;;;;;18.52;68.94;100700.81;4991161;28;20539;-89
2023/07/01 04:36:12;;;;;;;7.20;4.95;;;;;;;18.71;68.65;100709.81;4990885;28;20038;-88
2023/07/01 04:38:37;;;;;;;6.25;4.78;;;;;;;18.72;68.20;100708.88;4991219;28;20026;-91
2023/07/01 04:41:03;;;;;;;10.38;3.78;;;;;;;18.83;68.49;100703.56;4991301;28;20035;-89
2023/07/01 04:43:29;;;;;;;5.90;4.10;;;;;;;18.85;68.27;100686.75;4991062;28;20037;-89
2023/07/01 04:45:54;;;;;;;4.93;3.65;;;;;;;18.93;69.07;100694.00;4991166;28;20092;-90
2023/07/01 04:48:20;;;;;;;5.40;3.72;;;;;;;19.02;68.62;100693.22;4975295;28;20560;-90
2023/07/01 04:50:45;;;;;;;8.68;4.13;;;;;;;19.06;69.35;100694.63;4991069;28;20034;-89
2023/07/01 04:53:11;;;;;;;5.05;3.88;;;;;;;18.92;69.88;100680.06;4990970;28;20037;-90
2023/07/01 04:55:36;;;;;;;5.00;3.70;;;;;;;19.13;70.45;100695.78;4992429;28;20026;-90
2023/07/01 04:58:01;;;;;;;4.95;3.88;;;;;;;19.27;70.94;100699.03;5007243;28;20030;-89
2023/07/01 05:00:27;;;;;;;5.28;3.70;;;;;;;19.39;70.67;100692.78;4974594;28;20031;-90
2023/07/01 05:02:53;;;;;;;5.68;4.70;;;;;;;19.45;70.73;100684.38;4974420;28;20423;-90
2023/07/01 05:05:18;;;;;;;7.72;4.60;;;;;;;19.47;70.76;100692.97;4990907;28;20035;-90
2023/07/01 05:07:44;;;;;;;5.40;4.25;;;;;;;19.60;70.51;100703.25;5006853;28;20084;-89
2023/07/01 05:10:09;;;;;;;6.47;4.70;;;;;;;19.62;70.81;100701.34;4990670;28;20025;-90
2023/07/01 05:12:35;;;;;;;6.85;5.35;;;;;;;19.58;71.18;100690.28;4990976;28;20518;-91
2023/07/01 05:15:00;;;;;;;6.55;4.47;;;;;;;19.78;71.27;100706.94;4990764;28;20042;-90
2023/07/01 05:17:26;;;;;;;6.10;4.60;;;;;;;19.91;70.60;100717.19;4974695;28;20030;-89
2023/07/01 05:19:51;;;;;;;11.25;4.80;;;;;;;20.04;70.94;100712.53;4974456;28;20477;-90
2023/07/01 05:22:17;;;;;;;5.85;4.82;;;;;;;20.17;71.03;100718.41;5007007;28;20078;-90
2023/07/01 05:24:42;;;;;;;5.07;4.40;;;;;;;20.26;70.40;100712.34;5006717;28;20034;-89
2023/07/01 05:27:08;;;;;;;6.00;4.78;;;;;;;20.31;69.78;100711.91;4974263;28;20022;-90
2023/07/01 05:29:33;;;;;;;5.97;4.93;;;;;;;20.41;69.97;100723.28;4990675;28;20507;-90
2023/07/01 05:31:58;;;;;;;6.10;5.28;;;;;;;20.48;69.76;100715.72;4989948;28;20407;-89
2023/07/01 05:34:24;;;;;;;7.65;5.00;;;;;;;20.62;69.75;100717.94;4990757;28;20030;-89
2023/07/01 05:36:50;;;;;;;7.95;5.57;;;;;;;20.59;70.42;100702.44;4990045;28;20488;-89
2023/07/01 05:39:16;;;;;;;6.43;5.50;;;;;;;20.65;70.42;100696.66;4990326;28;20032;-90
2023/07/01 05:41:42;;;;;;;9.35;5.75;;;;;;;20.80;69.49;100711.00;4990776;28;20507;-90
2023/07/01 05:44:07;;;;;;;7.15;5.80;;;;;;;20.80;69.36;100705.75;4990138;28;20030;-89
2023/07/01 05:46:32;;;;;;;8.98;6.43;;;;;;;20.94;69.45;100714.19;5006795;28;20558;-90
2023/07/01 05:48:58;;;;;;;7.40;5.25;;;;;;;20.95;68.55;100698.28;4994281;28;20026;-89
2023/07/01 05:51:23;;;;;;;8.63;5.88;;;;;;;21.20;67.87;100715.25;4994507;28;20030;-91
2023/07/01 05:53:49;;;;;;;7.68;5.53;;;;;;;21.28;66.91;100715.44;4994137;28;20030;-89
2023/07/01 05:56:15;;;;;;;6.10;4.72;;;;;;;21.38;66.42;100689.09;4994382;28;20030;-89
2023/07/01 05:58:41;;;;;;;7.07;5.43;;;;;;;21.48;67.13;100690.72;4994088;28;20084;-90
2023/07/01 06:01:06;;;;;;;7.53;6.00;;;;;;;21.41;66.35;100689.63;4993514;28;20034;-90
2023/07/01 06:03:32;;;;;;;8.07;6.05;;;;;;;21.19;66.46;100677.59;4994036;28;20041;-90
2023/07/01 06:05:57;;;;;;;8.27;5.60;;;;;;;21.26;67.10;100693.69;4993804;28;20564;-90
2023/07/01 06:08:23;;;;;;;7.03;5.82;;;;;;;21.38;66.73;100692.53;4977821;28;20030;-90
2023/07/01 06:10:48;;;;;;;7.55;5.63;;;;;;;21.55;66.00;100698.88;4977569;28;20030;-91
2023/07/01 06:13:14;;;;;;;9.10;6.30;;;;;;;21.63;65.54;100698.13;4961757;28;20026;-89
2023/07/01 06:15:39;;;;;;;7.30;6.07;;;;;;;21.76;65.16;100694.22;4977495;28;20447;-89
2023/07/01 06:18:05;;;;;;;8.57;6.15;;;;;;;21.77;64.37;100684.50;4993971;28;20030;-90
2023/07/01 06:20:30;;;;;;;11.30;6.15;;;;;;;21.95;64.60;100687.19;4993746;28;20038;-90
2023/07/01 06:22:55;;;;;;;9.18;6.10;;;;;;;22.02;63.82;100691.72;4994927;28;20069;-89
2023/07/01 06:25:21;;;;;;;10.23;6.63;;;;;;;22.23;64.39;100703.84;5010067;28;20476;-88
2023/07/01 06:27:46;;;;;;;7.65;6.13;;;;;;;22.44;64.84;100709.66;4993728;28;20412;-90
2023/07/01 06:30:12;;;;;;;8.77;6.35;;;;;;;22.42;63.11;100698.44;4994264;28;20027;-89
2023/07/01 06:32:37;;;;;;;6.93;5.63;;;;;;;22.43;61.15;100686.09;4977469;28;20027;-90
2023/07/01 06:35:03;;;;;;;8.05;5.72;;;;;;;22.39;60.63;100674.19;4977315;28;20035;-90
2023/07/01 06:37:28;;;;;;;6.97;5.68;;;;;;;22.51;60.47;100694.06;5009650;28;20117;-89
2023/07/01 06:39:54;;;;;;;7.50;5.30;;;;;;;22.64;60.50;100698.97;4977152;28;20030;-91
2023/07/01 06:42:20;;;;;;;8.77;5.82;;;;;;;22.53;60.42;100658.69;4977100;28;20030;-90
2023/07/01 06:44:45;;;;;;;7.95;5.55;;;;;;;22.73;60.57;100692.78;5009409;28;20038;-90
2023/07/01 06:47:10;;;;;;;8.07;5.85;;;;;;;22.68;61.47;100655.50;4994437;28;20078;-90
2023/07/01 06:49:36;;;;;;;11.82;6.75;;;;;;;23.05;61.99;100692.25;5009645;28;20484;-89
2023/07/01 06:52:01;;;;;;;9.95;6.95;;;;;;;22.93;60.86;100667.09;4993491;28;20030;-90
2023/07/01 06:54:27;;;;;;;8.10;5.80;;;;;;;23.12;59.91;100698.56;4994057;28;20030;-90
2023/07/01 06:56:52;;;;;;;6.45;5.38;;;;;;;23.33;60.19;100680.56;4976906;28;20045;-91
2023/07/01 06:59:18;;;;;;;6.20;5.50;;;;;;;23.48;59.42;100678.16;4976215;28;20031;-90
2023/07/01 07:01:43;;;;;;;6.68;5.80;;;;;;;23.61;59.63;100680.41;5009369;28;20026;-89
2023/07/01 07:04:09;;;;;;;7.40;5.55;;;;;;;23.73;59.17;100685.25;4960637;28;20026;-90
2023/07/01 07:06:34;;;;;;;7.85;6.07;;;;;;;23.90;59.83;100677.38;4976704;28;20519;-88
2023/07/01 07:08:59;;;;;;;12.27;6.60;;;;;;;23.85;58.10;100655.91;4992977;28;20030;-89
2023/07/01 07:11:25;;;;;;;10.60;5.72;;;;;;;24.06;59.19;100671.31;5008637;28;20034;-89
2023/07/01 07:13:50;;;;;;;10.00;6.80;;;;;;;24.14;58.81;100666.06;5009272;28;20026;-89
2023/07/01 07:16:16;;;;;;;9.82;6.53;;;;;;;24.26;58.68;100672.69;4992705;28;20483;-89
2023/07/01 07:18:41;;;;;;;9.85;6.50;;;;;;;24.42;58.02;100666.63;4976574;28;20120;-90
2023/07/01 07:21:07;;;;;;;9.38;6.78;;;;;;;24.43;59.10;100670.94;4993059;28;20056;-89
2023/07/01 07:23:32;;;;;;;10.80;6.90;;;;;;;24.49;58.93;100668.47;4993746;28;20045;-89
2023/07/01 07:25:58;;;;;;;9.80;6.85;;;;;;;24.68;58.73;100653.22;4992131;28;20026;-90
2023/07/01 07:28:23;;;;;;;8.75;6.97;;;;;;;24.66;58.85;100637.53;4976215;28;20057;-89
2023/07/01 07:30:49;;;;;;;9.88;7.60;;;;;;;24.88;58.57;100651.94;5008608;28;20030;-89
2023/07/01 07:33:14;;;;;;;9.32;7.72;;;;;;;24.78;58.61;100630.94;4976150;28;20065;-90
2023/07/01 07:35:39;;;;;;;8.25;6.80;;;;;;;24.91;57.95;100633.06;5008728;28;20049;-89
2023/07/01 07:38:05;;;;;;;9.32;6.95;;;;;;;25.09;57.03;100643.47;4976106;28;20034;-90
2023/07/01 07:40:30;;;;;;;8.30;6.85;;;;;;;25.12;56.52;100646.59;4975482;28;20030;-89
2023/07/01 07:42:56;;;;;;;8.15;6.20;;;;;;;25.26;56.90;100646.91;4992193;28;20412;-90
2023/07/01 07:45:21;;;;;;;10.48;6.93;;;;;;;25.22;55.90;100616.47;4991853;28;20026;-89
2023/07/01 07:47:47;;;;;;;11.82;7.07;;;;;;;25.35;55.95;100630.81;5008420;28;20026;-90
2023/07/01 07:50:13;;;;;;;8.10;6.82;;;;;;;25.54;55.90;100640.19;4975869;28;20057;-91
2023/07/01 07:52:38;;;;;;;7.57;6.45;;;;;;;25.63;55.85;100633.03;4975922;28;20053;-91
2023/07/01 07:55:04;;;;;;;8.30;6.32;;;;;;;25.68;54.70;100622.75;4991546;28;21221;-89
2023/07/01 07:57:29;;;;;;;10.80;6.00;;;;;;;25.87;54.18;100637.44;4991894;28;20079;-89
2023/07/01 07:59:55;;;;;;;11.73;5.90;;;;;;;25.85;53.32;100611.09;4991928;28;20401;-89
2023/07/01 08:02:21;;;;;;;6.57;5.50;;;;;;;25.95;52.47;100627.59;4991649;28;20122;-90
2023/07/01 08:04:47;;;;;;;6.70;5.82;;;;;;;26.07;51.91;100635.16;4991722;28;20507;-89
2023/07/01 08:07:12;;;;;;;6.85;5.40;;;;;;;26.17;51.27;100643.72;4975581;28;20133;-90
2023/07/01 08:09:38;;;;;;;6.75;5.00;;;;;;;26.02;50.91;100610.00;4974370;28;20034;-89
2023/07/01 08:12:04;;;;;;;5.88;5.07;;;;;;;26.22;50.48;100610.34;5007927;28;20499;-91
2023/07/01 08:14:32;;;;;;;5.63;4.53;;;;;;;26.43;48.80;100600.94;4991536;28;20022;-89
2023/07/01 08:16:58;;;;;;;8.52;4.80;;;;;;;26.68;48.71;100617.47;5007523;28;20089;-89
2023/07/01 08:19:23;;;;;;;4.88;3.97;;;;;;;26.88;46.07;100627.38;4991471;28;20046;-91
2023/07/01 08:21:49;;;;;;;4.85;3.70;;;;;;;26.93;45.72;100615.41;4991253;28;20034;-90
2023/07/01 08:24:15;;;;;;;3.72;3.33;;;;;;;26.99;45.17;100618.16;4992411;28;20026;-91
2023/07/01 08:26:40;;;;;;;5.13;4.00;;;;;;;27.04;44.49;100620.28;5007523;28;20416;-91
2023/07/01 08:29:07;;;;;;;4.85;4.10;;;;;;;27.22;45.03;100630.56;4975527;28;20034;-89
2023/07/01 08:31:33;;;;;;;5.35;4.55;;;;;;;27.29;45.49;100613.72;4959060;28;20069;-89
2023/07/01 08:33:58;;;;;;;4.90;4.13;;;;;;;27.35;45.31;100612.16;4992424;28;20030;-88
2023/07/01 08:36:25;;;;;;;6.65;4.28;;;;;;;27.59;44.74;100635.75;4991156;28;20026;-88
2023/07/01 08:38:50;;;;;;;4.80;4.22;;;;;;;27.60;43.97;100589.56;4990912;28;20030;-89
2023/07/01 08:41:16;;;;;;;5.82;4.78;;;;;;;27.82;44.85;100602.91;4990997;28;20031;-89
2023/07/01 08:43:42;;;;;;;6.00;4.82;;;;;;;28.16;44.55;100616.38;4990865;28;20030;-90
2023/07/01 08:46:12;;;;;;;6.00;5.05;;;;;;;28.38;43.76;100621.72;4974926;28;20034;-89
2023/07/01 08:48:38;;;;;;;5.72;4.28;;;;;;;28.42;43.96;100618.50;4991275;28;20042;-89
2023/07/01 08:51:22;;;;;;;6.20;5.00;;;;;;;28.57;43.25;100629.06;4974759;28;20027;-90
2023/07/01 08:53:47;;;;;;;5.85;5.03;;;;;;;28.40;44.39;100617.03;4991801;28;20029;-90
2023/07/01 08:56:13;;;;;;;5.75;4.75;;;;;;;28.39;44.70;100610.06;4990887;28;20030;-90
2023/07/01 08:58:42;;;;;;;6.75;5.50;;;;;;;28.74;44.21;100614.44;4974549;28;20030;-88
2023/07/01 09:01:09;;;;;;;7.20;5.40;;;;;;;28.74;43.97;100618.94;4990670;28;20436;-89
2023/07/01 09:03:35;;;;;;;9.05;5.35;;;;;;;28.74;44.10;100606.47;4974531;28;20027;-89
2023/07/01 09:06:02;;;;;;;9.18;5.60;;;;;;;28.88;43.71;100615.34;4990339;28;20046;-89
2023/07/01 09:08:28;;;;;;;7.35;4.75;;;;;;;29.01;43.68;100604.00;4958228;28;20078;-89
2023/07/01 09:10:53;;;;;;;8.52;5.07;;;;;;;29.08;44.12;100600.34;4990754;28;20077;-90
2023/07/01 09:13:19;;;;;;;6.57;4.78;;;;;;;29.20;42.91;100594.47;4990657;28;20023;-88
2023/07/01 09:15:46;;;;;;;7.97;5.20;;;;;;;29.37;43.24;100591.28;4990530;28;20034;-90
2023/07/01 09:18:30;;;;;;;6.47;4.95;;;;;;;29.41;41.79;100576.53;5006321;28;20471;-89
2023/07/01 09:20:57;;;;;;;5.50;4.40;;;;;;;29.54;41.56;100598.97;4990230;28;20027;-90
2023/07/01 09:23:35;;;;;;;6.13;4.45;;;;;;;29.31;41.10;100559.28;4974477;28;20077;-91
2023/07/01 09:26:10;;;;;;;5.43;4.45;;;;;;;29.60;41.56;100576.84;4990259;28;20023;-91
2023/07/01 09:28:36;;;;;;;6.30;4.90;;;;;;;29.78;42.17;100589.59;4990615;28;20030;-90
2023/07/01 09:31:03;;;;;;;6.25;4.70;;;;;;;29.77;42.21;100578.09;4974289;28;20027;-90
2023/07/01 09:33:28;;;;;;;5.43;4.88;;;;;;;29.86;41.69;100570.75;4990533;28;20122;-89
2023/07/01 09:36:01;;;;;;;8.13;5.20;;;;;;;29.94;41.74;100568.72;4990257;28;20500;-91
2023/07/01 09:38:27;;;;;;;5.35;4.78;;;;;;;30.05;41.85;100559.28;4989811;28;20411;-89
2023/07/01 09:40:52;;;;;;;5.93;5.15;;;;;;;30.13;40.72;100545.78;4990582;28;20031;-90
2023/07/01 09:43:19;;;;;;;5.97;5.03;;;;;;;30.26;41.27;100550.28;4990197;28;20608;-91
2023/07/01 09:45:54;;;;;;;5.93;4.90;;;;;;;30.34;41.50;100552.75;4990286;28;20027;-89
2023/07/01 09:48:20;;;;;;;8.13;4.80;;;;;;;30.54;40.74;100550.88;4990337;28;20402;-90
2023/07/01 09:50:46;;;;;;;5.28;4.65;;;;;;;30.76;41.11;100558.69;4973914;28;20034;-90
2023/07/01 09:53:21;;;;;;;5.85;4.72;;;;;;;30.94;39.98;100550.84;4973489;28;20093;-90
2023/07/01 09:55:47;;;;;;;6.03;5.00;;;;;;;30.77;39.68;100531.75;4989891;28;20030;-88
2023/07/01 09:58:13;;;;;;;5.30;4.80;;;;;;;30.96;39.52;100547.94;4973828;28;20030;-89
2023/07/01 10:00:39;;;;;;;4.78;4.15;;;;;;;31.15;38.81;100543.56;4974129;28;20518;-91
2023/07/01 10:03:04;;;;;;;9.52;5.03;;;;;;;31.22;38.17;100545.22;5006609;28;20034;-91
2023/07/01 10:05:31;;;;;;;5.32;4.40;;;;;;;31.27;38.27;100536.59;4989581;28;20041;-90
2023/07/01 10:07:57;;;;;;;4.47;4.07;;;;;;;31.20;38.22;100503.69;4973376;28;20061;-90
2023/07/01 10:10:22;;;;;;;5.03;4.18;;;;;;;31.34;36.81;100521.31;4989931;28;20412;-91
2023/07/01 10:12:48;;;;;;;6.57;4.22;;;;;;;31.46;37.34;100532.16;4989948;28;20034;-90
2023/07/01 10:15:21;;;;;;;5.28;4.68;;;;;;;31.59;37.66;100524.06;4990305;28;20074;-89
2023/07/01 10:17:51;;;;;;;5.82;4.55;;;;;;;31.72;36.15;100523.16;4974380;28;20038;-90
2023/07/01 10:20:30;;;;;;;9.63;5.15;;;;;;;31.67;37.07;100516.63;4989701;28;20044;-90
2023/07/01 10:22:56;;;;;;;5.63;5.00;;;;;;;31.87;37.13;100510.34;4990125;28;20042;-90
2023/07/01 10:25:35;;;;;;;4.68;4.05;;;;;;;32.03;34.79;100509.78;4989896;28;20037;-90
2023/07/01 10:28:00;;;;;;;6.30;4.90;;;;;;;32.30;36.56;100520.28;4974154;28;20138;-90
2023/07/01 10:30:26;;;;;;;5.45;4.30;;;;;;;32.22;35.19;100506.13;4991329;28;20110;-92
2023/07/01 10:32:52;;;;;;;5.25;3.90;;;;;;;32.16;33.13;100506.19;4974503;28;20034;-91
2023/07/01 10:35:17;;;;;;;4.82;4.10;;;;;;;32.19;33.12;100500.38;4976997;28;20085;-91
2023/07/01 10:38:19;;;;;;;6.15;4.30;;;;;;;32.28;33.85;100501.75;4977254;28;20037;-90
2023/07/01 10:40:45;;;;;;;5.72;4.07;;;;;;;32.40;34.06;100493.84;5005421;28;20050;-91
2023/07/01 10:43:26;;;;;;;5.97;4.50;;;;;;;32.48;34.23;100498.91;4977188;28;20038;-90
2023/07/01 10:46:20;;;;;;;4.55;3.83;;;;;;;32.64;34.17;100500.97;4993496;28;20113;-91
2023/07/01 10:49:03;;;;;;;6.20;4.32;;;;;;;32.82;34.40;100498.31;4993413;28;20480;-91
2023/07/01 10:51:49;;;;;;;4.88;4.10;;;;;;;32.80;33.54;100495.03;4993235;28;20056;-92
2023/07/01 10:54:14;;;;;;;4.80;4.07;;;;;;;32.83;33.90;100488.44;4994226;28;20633;-91
2023/07/01 10:56:42;;;;;;;4.55;3.60;;;;;;;32.81;32.71;100488.63;4992896;28;20071;-92
2023/07/01 10:59:16;;;;;;;4.75;4.20;;;;;;;32.54;33.31;100468.53;4977392;28;20073;-90
2023/07/01 11:01:43;;;;;;;4.45;4.00;;;;;;;32.75;33.26;100484.19;4992989;28;20033;-90
2023/07/01 11:04:09;;;;;;;4.63;3.80;;;;;;;32.89;33.02;100481.38;4976526;28;20031;-90
2023/07/01 11:06:52;;;;;;;5.30;3.95;;;;;;;33.03;33.12;100483.66;4992479;28;20416;-90
2023/07/01 11:09:28;;;;;;;4.25;3.70;;;;;;;33.18;32.46;100480.59;4993033;28;20037;-91
2023/07/01 11:11:57;;;;;;;5.82;4.00;;;;;;;33.37;33.41;100479.53;4976753;28;20026;-90
2023/07/01 11:14:33;;;;;;;4.65;3.88;;;;;;;33.56;32.97;100476.78;5009233;28;20034;-90
2023/07/01 11:17:09;;;;;;;4.25;3.83;;;;;;;33.56;32.99;100471.41;5008799;28;20030;-91
2023/07/01 11:19:35;;;;;;;8.88;4.28;;;;;;;33.68;31.81;100461.53;4976503;28;20518;-90
2023/07/01 11:22:01;;;;;;;4.20;3.80;;;;;;;33.97;30.76;100451.78;4992696;28;20026;-91